Time;durP1;ratioP1;P1;durP2;ratioP2;P2;SDS_P1;SDS_P2;PMS_P1;PMS_P2;Temp;Humidity;BMP_temperature;BMP_pressure;BME280_temperature;BME280_humidity;BME280_pressure;Samples;Min_cycle;Max_cycle;Signal;HPM_P1;HPM_P2
2024/02/17 00:00:42;;;;;;;;;;;;;;;16.88;44.76;101890.13;5037379;28;1130;-55
2024/02/17 00:03:12;;;;;;;;;;;;;;;18.01;42.29;101893.75;5037328;28;1112;-56
2024/02/17 00:05:38;;;;;;;;;;;;;;;16.80;44.69;101890.50;5023919;28;1914;-56
2024/02/17 00:08:04;;;;;;;;;;;;;;;16.50;45.14;101886.13;5037066;28;1058;-55
2024/02/17 00:10:30;;;;;;;;;;;;;;;17.88;43.00;101896.84;5037204;28;1035;-55
2024/02/17 00:12:55;;;;;;;;;;;;;;;16.90;44.69;101890.72;5037317;28;1079;-56
2024/02/17 00:15:21;;;;;;;;;;;;;;;16.41;45.34;101885.69;5036514;28;1110;-56
2024/02/17 00:17:46;;;;;;;;;;;;;;;18.06;42.49;101890.22;5036965;28;1111;-56
2024/02/17 00:20:14;;;;;;;;;;;;;;;17.02;44.47;101892.56;5036679;28;1103;-56
2024/02/17 00:22:40;;;;;;;;;;;;;;;17.61;43.35;101894.84;5036980;28;1106;-56
2024/02/17 00:25:05;;;;;;;;;;;;;;;18.00;41.99;101891.25;5028651;28;2705;-56
2024/02/17 00:27:31;;;;;;;;;;;;;;;17.00;44.19;101887.31;5036200;28;1137;-56
2024/02/17 00:29:57;;;;;;;;;;;;;;;16.62;45.13;101891.56;5036878;28;1126;-56
2024/02/17 00:32:22;;;;;;;;;;;;;;;18.19;41.77;101891.75;5037008;28;1117;-57
2024/02/17 00:34:48;;;;;;;;;;;;;;;16.96;44.49;101880.66;5027894;28;980;-56
2024/02/17 00:37:13;;;;;;;;;;;;;;;17.22;44.16;101884.66;5036475;28;1106;-57
2024/02/17 00:39:39;;;;;;;;;;;;;;;17.48;43.10;101878.72;5029057;28;1233;-57
2024/02/17 00:42:06;;;;;;;;;;;;;;;16.74;44.69;101881.34;5036841;28;1055;-57
2024/02/17 00:44:32;;;;;;;;;;;;;;;17.44;43.84;101883.88;5032062;28;1129;-57
2024/02/17 00:46:58;;;;;;;;;;;;;;;17.64;43.08;101888.81;5028243;28;1974;-57
2024/02/17 00:49:23;;;;;;;;;;;;;;;16.76;44.69;101884.69;5032402;28;1123;-57
2024/02/17 00:51:49;;;;;;;;;;;;;;;17.57;43.58;101891.78;5027340;28;1187;-57
2024/02/17 00:54:14;;;;;;;;;;;;;;;17.48;43.28;101881.44;5035034;28;2610;-57
2024/02/17 00:56:40;;;;;;;;;;;;;;;16.75;44.67;101877.50;5036265;28;1068;-57
2024/02/17 00:59:06;;;;;;;;;;;;;;;17.15;44.19;101872.97;5035966;28;1086;-57
2024/02/17 01:01:31;;;;;;;;;;;;;;;18.08;42.14;101877.88;5036186;28;1047;-57
2024/02/17 01:03:57;;;;;;;;;;;;;;;16.91;44.54;101886.06;5035105;28;1138;-57
2024/02/17 01:06:23;;;;;;;;;;;;;;;16.64;44.40;101883.09;5036319;28;1901;-57
2024/02/17 01:08:49;;;;;;;;;;;;;;;17.15;44.22;101874.91;5036060;28;1036;-57
2024/02/17 01:11:16;;;;;;;;;;;;;;;17.70;42.96;101882.31;5036407;28;1181;-57
2024/02/17 01:13:41;;;;;;;;;;;;;;;16.84;44.63;101879.84;5036200;28;988;-57
2024/02/17 01:16:07;;;;;;;;;;;;;;;16.57;44.89;101883.22;5035322;28;912;-57
2024/02/17 01:18:33;;;;;;;;;;;;;;;17.86;42.79;101888.03;5031662;28;1015;-57
2024/02/17 01:20:59;;;;;;;;;;;;;;;17.23;43.75;101885.47;5027342;28;1047;-56
2024/02/17 01:23:24;;;;;;;;;;;;;;;16.57;44.74;101880.50;5035618;28;1027;-54
2024/02/17 01:25:50;;;;;;;;;;;;;;;16.47;45.10;101883.06;5035783;28;2819;-55
2024/02/17 01:28:16;;;;;;;;;;;;;;;18.33;41.71;101882.03;5035674;28;1055;-54
2024/02/17 01:30:41;;;;;;;;;;;;;;;16.95;44.30;101887.22;5025541;28;1098;-56
2024/02/17 01:33:07;;;;;;;;;;;;;;;16.59;44.67;101878.31;5033166;28;1095;-56
2024/02/17 01:35:32;;;;;;;;;;;;;;;16.73;44.97;101879.69;5031947;28;1200;-56
2024/02/17 01:38:01;;;;;;;;;;;;;;;18.09;41.95;101885.03;5035610;28;1063;-55
2024/02/17 01:40:27;;;;;;;;;;;;;;;16.89;44.44;101882.72;5035482;28;946;-56
2024/02/17 01:42:53;;;;;;;;;;;;;;;17.60;43.35;101874.75;5036438;28;1121;-55
2024/02/17 01:45:19;;;;;;;;;;;;;;;17.37;43.58;101881.28;5035811;28;1902;-56
2024/02/17 01:47:45;;;;;;;;;;;;;;;16.69;44.76;101884.00;5035712;28;1051;-55
2024/02/17 01:50:11;;;;;;;;;;;;;;;17.56;43.30;101881.03;5035711;28;1051;-55
2024/02/17 01:52:37;;;;;;;;;;;;;;;17.28;43.72;101877.31;5035014;28;1016;-55
2024/02/17 01:55:04;;;;;;;;;;;;;;;16.69;44.47;101883.16;5033798;28;2499;-55
2024/02/17 01:57:29;;;;;;;;;;;;;;;16.45;44.40;101872.28;5035524;28;1175;-54
2024/02/17 01:59:55;;;;;;;;;;;;;;;17.77;42.67;101885.72;5035813;28;1116;-56
2024/02/17 02:02:20;;;;;;;;;;;;;;;16.79;44.49;101885.25;5034506;28;1150;-55
2024/02/17 02:04:46;;;;;;;;;;;;;;;17.06;44.44;101878.06;5035043;28;1975;-55
2024/02/17 02:07:12;;;;;;;;;;;;;;;17.53;42.98;101881.50;5029812;28;1040;-56
2024/02/17 02:09:37;;;;;;;;;;;;;;;16.75;44.47;101888.50;5026407;28;1028;-56
2024/02/17 02:12:04;;;;;;;;;;;;;;;16.58;45.08;101882.97;5054047;28;1198;-55
2024/02/17 02:14:31;;;;;;;;;;;;;;;18.27;41.67;101889.38;5036116;28;1114;-55
2024/02/17 02:16:56;;;;;;;;;;;;;;;16.86;44.44;101889.53;5039188;28;1195;-56
2024/02/17 02:19:22;;;;;;;;;;;;;;;16.52;44.71;101889.47;5039282;28;1155;-57
2024/02/17 02:21:48;;;;;;;;;;;;;;;17.98;42.46;101893.41;5039201;28;1027;-56
2024/02/17 02:24:13;;;;;;;;;;;;;;;17.13;43.93;101888.91;5039761;28;1039;-56
2024/02/17 02:26:39;;;;;;;;;;;;;;;17.37;43.54;101895.03;5038955;28;1917;-56
2024/02/17 02:29:04;;;;;;;;;;;;;;;18.28;41.35;101904.78;5038602;28;872;-57
2024/02/17 02:31:30;;;;;;;;;;;;;;;17.02;44.26;101904.38;5039346;28;1087;-57
2024/02/17 02:33:56;;;;;;;;;;;;;;;16.69;44.63;101903.22;5039325;28;1086;-56
2024/02/17 02:36:22;;;;;;;;;;;;;;;17.98;42.25;101898.91;5039219;28;1110;-56
2024/02/17 02:38:48;;;;;;;;;;;;;;;16.86;44.36;101903.25;5039048;28;1074;-56
2024/02/17 02:41:13;;;;;;;;;;;;;;;16.59;44.65;101906.63;5036507;28;1194;-56
2024/02/17 02:43:39;;;;;;;;;;;;;;;17.14;43.91;101897.97;5039116;28;1083;-56
2024/02/17 02:46:05;;;;;;;;;;;;;;;18.07;41.86;101895.47;5039073;28;1973;-57
2024/02/17 02:48:31;;;;;;;;;;;;;;;16.93;44.40;101900.38;5038489;28;867;-56
2024/02/17 02:50:56;;;;;;;;;;;;;;;16.70;44.64;101896.63;5038673;28;1047;-56
2024/02/17 02:53:22;;;;;;;;;;;;;;;18.47;41.15;101888.78;5028207;28;1079;-57
2024/02/17 02:55:47;;;;;;;;;;;;;;;17.16;44.00;101898.56;5035813;28;1040;-56
2024/02/17 02:58:13;;;;;;;;;;;;;;;16.67;44.28;101891.66;5038634;28;1254;-56
2024/02/17 03:00:38;;;;;;;;;;;;;;;17.61;42.93;101892.06;5038546;28;1183;-57
2024/02/17 03:03:04;;;;;;;;;;;;;;;17.44;43.07;101895.69;5028573;28;1121;-57
2024/02/17 03:05:32;;;;;;;;;;;;;;;16.80;44.48;101903.41;5035414;28;1980;-57
2024/02/17 03:07:58;;;;;;;;;;;;;;;16.52;44.28;101900.47;5038368;28;1135;-56
2024/02/17 03:10:24;;;;;;;;;;;;;;;18.05;42.01;101897.66;5038520;28;1144;-56
2024/02/17 03:12:49;;;;;;;;;;;;;;;17.13;44.05;101904.56;5038695;28;1159;-57
2024/02/17 03:15:15;;;;;;;;;;;;;;;16.98;44.33;101907.88;5038664;28;1222;-57
2024/02/17 03:17:40;;;;;;;;;;;;;;;18.15;41.78;101915.41;5038235;28;937;-57
2024/02/17 03:20:06;;;;;;;;;;;;;;;17.00;44.17;101902.94;5037934;28;1226;-57
2024/02/17 03:22:32;;;;;;;;;;;;;;;16.63;44.43;101898.72;5038562;28;1175;-56
2024/02/17 03:24:57;;;;;;;;;;;;;;;16.41;44.41;101901.31;5025117;28;2275;-55
2024/02/17 03:27:23;;;;;;;;;;;;;;;18.16;41.92;101906.03;5037478;28;1043;-54
2024/02/17 03:29:49;;;;;;;;;;;;;;;17.04;44.06;101896.72;5037592;28;838;-55
2024/02/17 03:32:14;;;;;;;;;;;;;;;16.62;44.60;101891.56;5038644;28;1221;-55
2024/02/17 03:34:41;;;;;;;;;;;;;;;16.41;44.42;101893.94;5034460;28;1130;-55
2024/02/17 03:37:06;;;;;;;;;;;;;;;18.02;42.26;101900.06;5028747;28;1032;-55
2024/02/17 03:39:32;;;;;;;;;;;;;;;16.87;44.51;101893.09;5037545;28;1102;-56
2024/02/17 03:41:58;;;;;;;;;;;;;;;16.60;44.67;101893.72;5037805;28;1022;-53
2024/02/17 03:44:23;;;;;;;;;;;;;;;16.33;44.79;101891.56;5037810;28;1091;-53
2024/02/17 03:46:49;;;;;;;;;;;;;;;17.59;42.95;101897.84;5028126;28;1909;-54
2024/02/17 03:49:19;;;;;;;;;;;;;;;17.09;43.83;101898.72;5034028;28;1134;-55
2024/02/17 03:51:45;;;;;;;;;;;;;;;16.47;45.09;101894.84;5028259;28;1097;-52
2024/02/17 03:54:11;;;;;;;;;;;;;;;17.53;43.32;101887.00;5035184;28;1308;-54
2024/02/17 03:56:36;;;;;;;;;;;;;;;17.21;43.71;101885.72;5027208;28;1052;-52
2024/02/17 03:59:02;;;;;;;;;;;;;;;16.65;45.10;101892.97;5034982;28;1119;-55
2024/02/17 04:01:33;;;;;;;;;;;;;;;18.34;41.18;101889.19;5037790;28;1059;-56
2024/02/17 04:04:03;;;;;;;;;;;;;;;16.96;44.00;101883.41;5037433;28;1151;-56
2024/02/17 04:06:28;;;;;;;;;;;;;;;16.57;44.87;101888.72;5037548;28;1906;-56
2024/02/17 04:08:54;;;;;;;;;;;;;;;18.33;41.03;101879.25;5037504;28;1229;-56
2024/02/17 04:11:20;;;;;;;;;;;;;;;16.98;43.94;101883.97;5037028;28;1158;-56
2024/02/17 04:13:45;;;;;;;;;;;;;;;16.67;44.48;101877.91;5037219;28;1101;-56
2024/02/17 04:16:11;;;;;;;;;;;;;;;16.36;44.35;101885.59;5027229;28;1169;-51
2024/02/17 04:18:37;;;;;;;;;;;;;;;17.68;42.69;101883.66;5037039;28;1266;-57
2024/02/17 04:21:03;;;;;;;;;;;;;;;17.26;43.54;101876.72;5026946;28;2426;-56
2024/02/17 04:23:30;;;;;;;;;;;;;;;16.62;44.63;101871.50;5027570;28;1104;-55
2024/02/17 04:25:57;;;;;;;;;;;;;;;18.38;41.02;101871.03;5036513;28;1905;-54
2024/02/17 04:28:23;;;;;;;;;;;;;;;16.94;44.16;101877.31;5036671;28;1016;-53
2024/02/17 04:30:48;;;;;;;;;;;;;;;16.68;44.25;101879.59;5036723;28;1047;-53
2024/02/17 04:33:14;;;;;;;;;;;;;;;16.58;44.47;101880.25;5036880;28;999;-53
2024/02/17 04:35:40;;;;;;;;;;;;;;;18.12;41.59;101884.53;5033562;28;1079;-52
2024/02/17 04:38:05;;;;;;;;;;;;;;;16.82;44.34;101882.03;5026918;28;1040;-52
2024/02/17 04:40:31;;;;;;;;;;;;;;;17.36;43.56;101876.91;5036194;28;1130;-56
2024/02/17 04:42:56;;;;;;;;;;;;;;;18.05;41.68;101889.41;5034820;28;1653;-57
2024/02/17 04:45:23;;;;;;;;;;;;;;;17.00;43.81;101880.97;5036379;28;1970;-54
2024/02/17 04:47:49;;;;;;;;;;;;;;;16.57;44.42;101875.00;5036777;28;1110;-55
2024/02/17 04:50:14;;;;;;;;;;;;;;;17.82;42.50;101878.63;5037029;28;1190;-55
2024/02/17 04:52:41;;;;;;;;;;;;;;;17.16;43.58;101871.06;5035383;28;2830;-56
2024/02/17 04:55:06;;;;;;;;;;;;;;;16.48;44.82;101865.47;5023185;28;1114;-60
2024/02/17 04:57:32;;;;;;;;;;;;;;;17.08;44.01;101875.91;5036902;28;1055;-60
2024/02/17 04:59:57;;;;;;;;;;;;;;;17.67;42.35;101874.59;5036820;28;1095;-53
2024/02/17 05:02:23;;;;;;;;;;;;;;;17.14;43.88;101881.47;5027979;28;1108;-58
2024/02/17 05:04:49;;;;;;;;;;;;;;;18.80;40.31;101877.78;5016816;28;1023;-61
2024/02/17 05:07:14;;;;;;;;;;;;;;;17.57;42.72;101885.41;5025631;28;1044;-58
2024/02/17 05:09:41;;;;;;;;;;;;;;;16.95;43.85;101886.41;5034431;28;1175;-57
2024/02/17 05:12:07;;;;;;;;;;;;;;;16.67;44.31;101896.31;5024973;28;1001;-57
2024/02/17 05:14:36;;;;;;;;;;;;;;;18.02;41.53;101892.66;5036421;28;1206;-57
2024/02/17 05:17:03;;;;;;;;;;;;;;;17.82;42.03;101892.38;5036208;28;1119;-56
2024/02/17 05:19:29;;;;;;;;;;;;;;;17.18;43.38;101896.38;5036327;28;1278;-56
2024/02/17 05:21:56;;;;;;;;;;;;;;;16.88;43.81;101901.13;5035593;28;2415;-57
2024/02/17 05:24:22;;;;;;;;;;;;;;;16.62;44.48;101904.44;5036457;28;1062;-58
2024/02/17 05:26:48;;;;;;;;;;;;;;;16.42;44.84;101920.31;5036005;28;1902;-57
2024/02/17 05:29:13;;;;;;;;;;;;;;;16.23;45.13;101919.66;5036523;28;1090;-56
2024/02/17 05:31:39;;;;;;;;;;;;;;;16.03;45.68;101925.56;5036220;28;1011;-56
2024/02/17 05:34:04;;;;;;;;;;;;;;;15.89;45.87;101924.97;5036393;28;1047;-56
2024/02/17 05:36:30;;;;;;;;;;;;;;;15.78;46.17;101941.41;5034092;28;1135;-56
2024/02/17 05:38:55;;;;;;;;;;;;;;;15.67;46.50;101937.59;5025008;28;993;-54
2024/02/17 05:41:21;;;;;;;;;;;;;;;15.56;46.64;101947.50;5034992;28;1432;-57
2024/02/17 05:43:47;;;;;;;;;;;;;;;15.45;47.15;101945.59;5027474;28;968;-57
2024/02/17 05:46:12;;;;;;;;;;;;;;;15.24;47.37;101953.31;5031465;28;1906;-57
2024/02/17 05:48:38;;;;;;;;;;;;;;;15.18;47.46;101951.50;5036269;28;1114;-56
2024/02/17 05:51:03;;;;;;;;;;;;;;;16.45;44.56;101965.63;5038882;28;2559;-55
2024/02/17 05:53:29;;;;;;;;;;;;;;;17.32;42.40;101963.72;5039610;28;1234;-56
2024/02/17 05:55:55;;;;;;;;;;;;;;;16.28;44.64;101967.50;5039997;28;1023;-56
2024/02/17 05:58:21;;;;;;;;;;;;;;;15.84;45.92;101971.47;5040036;28;1182;-55
2024/02/17 06:00:47;;;;;;;;;;;;;;;15.62;46.37;101979.44;5038832;28;1534;-54
2024/02/17 06:03:13;;;;;;;;;;;;;;;15.42;46.87;101978.94;5028337;28;1118;-56
2024/02/17 06:05:39;;;;;;;;;;;;;;;15.24;47.20;101983.44;5039032;28;1989;-57
2024/02/17 06:08:05;;;;;;;;;;;;;;;15.81;46.07;101982.09;5040009;28;1035;-56
2024/02/17 06:10:30;;;;;;;;;;;;;;;17.13;42.79;101982.34;5040016;28;996;-55
2024/02/17 06:12:56;;;;;;;;;;;;;;;16.76;43.43;101982.75;5039538;28;1132;-57
2024/02/17 06:15:21;;;;;;;;;;;;;;;16.19;44.86;101983.50;5026821;28;1135;-54
2024/02/17 06:21:10;;;;;;;;;;;;;;;15.95;45.67;101986.28;5039370;28;1119;-57
2024/02/17 06:23:21;;;;;;;;;;;;;;;15.62;46.21;101995.88;5039296;28;1047;-56
2024/02/17 06:25:46;;;;;;;;;;;;;;;15.47;46.78;101999.09;5032282;28;1978;-56
2024/02/17 06:28:12;;;;;;;;;;;;;;;15.82;46.01;101997.47;5033508;28;1036;-56
2024/02/17 06:30:37;;;;;;;;;;;;;;;17.17;42.82;101996.44;5032106;28;849;-56
2024/02/17 06:33:03;;;;;;;;;;;;;;;16.91;43.24;101984.97;5032992;28;1083;-56
2024/02/17 06:35:28;;;;;;;;;;;;;;;16.06;45.35;101993.66;5019446;28;1040;-57
2024/02/17 06:37:54;;;;;;;;;;;;;;;15.70;45.96;101990.06;5033652;28;1119;-58
2024/02/17 06:40:20;;;;;;;;;;;;;;;15.51;46.77;101999.47;5039558;28;1238;-56
2024/02/17 06:42:45;;;;;;;;;;;;;;;15.29;46.92;102001.91;5038443;28;1143;-57
2024/02/17 06:45:16;;;;;;;;;;;;;;;16.20;44.91;102001.63;5038842;28;1902;-57
2024/02/17 06:47:42;;;;;;;;;;;;;;;17.39;42.51;102013.84;5039245;28;1055;-56
2024/02/17 06:50:10;;;;;;;;;;;;;;;16.54;43.92;102001.81;5038754;28;1109;-56
2024/02/17 06:52:35;;;;;;;;;;;;;;;15.99;45.32;101998.44;5038298;28;1095;-55
2024/02/17 06:55:01;;;;;;;;;;;;;;;15.67;46.16;102012.47;5033340;28;1319;-55
2024/02/17 06:57:26;;;;;;;;;;;;;;;15.38;46.91;102006.00;5038237;28;1122;-54
2024/02/17 06:59:52;;;;;;;;;;;;;;;15.90;45.85;102014.41;5019112;28;1097;-56
2024/02/17 07:02:22;;;;;;;;;;;;;;;17.27;42.45;102011.16;5031566;28;1044;-56
2024/02/17 07:04:49;;;;;;;;;;;;;;;16.70;43.73;102003.75;5038863;28;1150;-57
2024/02/17 07:07:14;;;;;;;;;;;;;;;16.02;45.44;102006.19;5038395;28;1980;-52
2024/02/17 07:09:40;;;;;;;;;;;;;;;15.74;45.76;102018.69;5039137;28;1214;-56
2024/02/17 07:12:06;;;;;;;;;;;;;;;15.54;46.53;102009.94;5037752;28;1519;-56
2024/02/17 07:14:31;;;;;;;;;;;;;;;15.34;46.80;102016.59;5026881;28;1245;-55
2024/02/17 07:16:57;;;;;;;;;;;;;;;16.73;43.72;102021.66;5038542;28;1039;-56
2024/02/17 07:19:23;;;;;;;;;;;;;;;17.40;42.24;102020.19;5031080;28;876;-56
2024/02/17 07:21:48;;;;;;;;;;;;;;;16.32;44.63;102020.81;5019197;28;1099;-58
2024/02/17 07:24:14;;;;;;;;;;;;;;;15.87;45.35;102017.63;5026005;28;1063;-57
2024/02/17 07:26:41;;;;;;;;;;;;;;;15.59;46.29;102012.81;5024201;28;1910;-55
2024/02/17 07:29:06;;;;;;;;;;;;;;;15.42;46.61;102020.91;5038382;28;1126;-55
2024/02/17 07:31:37;;;;;;;;;;;;;;;16.48;44.05;102009.09;5025466;28;930;-55
2024/02/17 07:34:02;;;;;;;;;;;;;;;17.49;41.58;102012.34;5038332;28;1055;-54
2024/02/17 07:36:28;;;;;;;;;;;;;;;16.44;44.19;102027.13;5038842;28;1075;-56
2024/02/17 07:38:54;;;;;;;;;;;;;;;15.92;45.40;102022.38;5029421;28;1127;-55
2024/02/17 07:41:19;;;;;;;;;;;;;;;15.65;45.94;102022.81;5031704;28;1106;-55
2024/02/17 07:43:45;;;;;;;;;;;;;;;15.51;46.40;102026.88;5026580;28;1056;-49
2024/02/17 07:46:10;;;;;;;;;;;;;;;16.25;44.75;102026.44;5033332;28;1970;-53
2024/02/17 07:48:36;;;;;;;;;;;;;;;17.40;41.82;102021.03;5037868;28;1253;-52
2024/02/17 07:51:02;;;;;;;;;;;;;;;16.53;43.69;102025.66;5037866;28;1020;-53
2024/02/17 07:53:27;;;;;;;;;;;;;;;15.99;45.26;102034.09;5037953;28;1152;-50
2024/02/17 07:55:53;;;;;;;;;;;;;;;15.69;45.62;102035.00;5037512;28;910;-55
2024/02/17 07:58:18;;;;;;;;;;;;;;;15.48;46.48;102033.66;5037109;28;1086;-52
2024/02/17 08:00:44;;;;;;;;;;;;;;;16.11;45.03;102022.28;5038339;28;1035;-53
2024/02/17 08:03:12;;;;;;;;;;;;;;;17.41;42.14;102030.94;5037546;28;1099;-46
2024/02/17 08:05:38;;;;;;;;;;;;;;;16.74;43.13;102026.91;5037620;28;1969;-50
2024/02/17 08:08:04;;;;;;;;;;;;;;;16.08;44.82;102029.91;5036710;28;861;-52
2024/02/17 08:10:29;;;;;;;;;;;;;;;15.84;45.31;102037.31;5037657;28;1031;-53
2024/02/17 08:12:55;;;;;;;;;;;;;;;15.56;45.94;102035.22;5037084;28;1242;-53
2024/02/17 08:15:20;;;;;;;;;;;;;;;15.36;46.69;102041.88;5028125;28;1051;-47
2024/02/17 08:17:46;;;;;;;;;;;;;;;16.95;43.07;102043.84;5020689;28;1168;-48
2024/02/17 08:20:12;;;;;;;;;;;;;;;17.33;42.10;102036.81;5027257;28;896;-49
2024/02/17 08:22:37;;;;;;;;;;;;;;;16.35;44.29;102043.13;5020735;28;1078;-54
2024/02/17 08:25:06;;;;;;;;;;;;;;;15.86;45.46;102039.81;5027658;28;1894;-55
2024/02/17 08:27:38;;;;;;;;;;;;;;;15.67;45.92;102045.38;5034051;28;1032;-48
2024/02/17 08:30:04;;;;;;;;;;;;;;;15.48;46.25;102043.78;5036899;28;1086;-56
2024/02/17 08:32:32;;;;;;;;;;;;;;;16.17;44.62;102040.53;5019963;28;1179;-55
2024/02/17 08:34:57;;;;;;;;;;;;;;;17.39;42.03;102041.34;5017922;28;1079;-51
2024/02/17 08:37:23;;;;;;;;;;;;;;;16.57;43.63;102042.50;5021062;28;1190;-51
2024/02/17 08:39:49;;;;;;;;;;;;;;;15.98;44.95;102046.16;5026742;28;1011;-50
2024/02/17 08:42:14;;;;;;;;;;;;;;;15.69;45.93;102045.97;5034065;28;1084;-55
2024/02/17 08:44:40;;;;;;;;;;;;;;;15.45;46.32;102047.00;5037355;28;1171;-52
2024/02/17 08:47:05;;;;;;;;;;;;;;;15.39;46.63;102055.09;5036607;28;1979;-48
2024/02/17 08:49:31;;;;;;;;;;;;;;;16.97;43.20;102054.56;5034513;28;1121;-55
2024/02/17 08:51:57;;;;;;;;;;;;;;;17.09;42.56;102047.94;5017404;28;1282;-50
2024/02/17 08:54:25;;;;;;;;;;;;;;;16.16;44.77;102047.94;5018434;28;1512;-51
2024/02/17 08:56:51;;;;;;;;;;;;;;;15.77;45.46;102044.78;5028123;28;1048;-53
2024/02/17 08:59:17;;;;;;;;;;;;;;;15.55;46.02;102061.78;5032683;28;1067;-50
2024/02/17 09:01:42;;;;;;;;;;;;;;;15.72;45.77;102053.75;5036823;28;1012;-55
2024/02/17 09:04:08;;;;;;;;;;;;;;;17.13;42.60;102044.72;5021505;28;1199;-49
2024/02/17 09:06:33;;;;;;;;;;;;;;;16.95;42.85;102057.56;5018735;28;1898;-51
2024/02/17 09:08:59;;;;;;;;;;;;;;;16.12;44.94;102060.47;5036632;28;1211;-47
2024/02/17 09:11:24;;;;;;;;;;;;;;;15.85;45.27;102057.34;5027649;28;1055;-52
2024/02/17 09:13:50;;;;;;;;;;;;;;;15.57;46.19;102053.31;5032064;28;1153;-52
2024/02/17 09:16:16;;;;;;;;;;;;;;;15.71;45.98;102060.28;5027646;28;1131;-50
2024/02/17 09:18:42;;;;;;;;;;;;;;;17.18;42.45;102059.41;5031493;28;1222;-51
2024/02/17 09:21:08;;;;;;;;;;;;;;;16.75;43.23;102058.81;5036464;28;1092;-50
2024/02/17 09:23:34;;;;;;;;;;;;;;;16.03;44.87;102060.00;5036421;28;1102;-51
2024/02/17 09:26:00;;;;;;;;;;;;;;;15.77;45.58;102053.03;5027038;28;1898;-53
2024/02/17 09:28:25;;;;;;;;;;;;;;;15.48;46.19;102049.28;5032387;28;1127;-50
2024/02/17 09:30:51;;;;;;;;;;;;;;;16.25;44.54;102048.41;5035913;28;1194;-49
2024/02/17 09:33:16;;;;;;;;;;;;;;;17.43;42.07;102039.78;5035941;28;1078;-49
2024/02/17 09:35:42;;;;;;;;;;;;;;;16.36;44.37;102053.03;5035978;28;1435;-56
2024/02/17 09:38:08;;;;;;;;;;;;;;;16.01;45.01;102050.31;5036035;28;1170;-52
2024/02/17 09:40:33;;;;;;;;;;;;;;;15.66;45.91;102051.94;5036309;28;1043;-52
2024/02/17 09:42:59;;;;;;;;;;;;;;;15.48;46.47;102044.63;5023917;28;1063;-49
2024/02/17 09:45:26;;;;;;;;;;;;;;;16.29;44.51;102041.34;5036098;28;1894;-54
2024/02/17 09:47:52;;;;;;;;;;;;;;;17.43;42.00;102044.41;5052369;28;1359;-50
2024/02/17 09:50:20;;;;;;;;;;;;;;;16.38;44.08;102047.28;5016506;28;1107;-48
2024/02/17 09:52:49;;;;;;;;;;;;;;;15.83;45.63;102049.34;5018461;28;1087;-54
2024/02/17 09:55:15;;;;;;;;;;;;;;;15.67;45.82;102048.13;5035881;28;1127;-48
2024/02/17 09:57:41;;;;;;;;;;;;;;;15.40;46.49;102048.56;5036270;28;1183;-49
2024/02/17 10:00:09;;;;;;;;;;;;;;;15.65;46.00;102043.94;5035880;28;1075;-53
2024/02/17 10:02:37;;;;;;;;;;;;;;;17.15;42.68;102035.13;5035631;28;1210;-54
2024/02/17 10:05:03;;;;;;;;;;;;;;;16.63;43.61;102036.03;5026668;28;1946;-48
2024/02/17 10:07:28;;;;;;;;;;;;;;;15.94;45.27;102030.41;5021620;28;1123;-51
2024/02/17 10:09:54;;;;;;;;;;;;;;;15.66;46.08;102029.16;5036294;28;1059;-57
2024/02/17 10:12:20;;;;;;;;;;;;;;;15.42;46.37;102033.75;5022493;28;1155;-57
2024/02/17 10:14:50;;;;;;;;;;;;;;;16.74;43.57;102040.63;5026578;28;1047;-55
2024/02/17 10:17:15;;;;;;;;;;;;;;;17.18;42.51;102031.06;5031933;28;1154;-56
2024/02/17 10:19:41;;;;;;;;;;;;;;;16.19;44.68;102028.25;5035530;28;1103;-55
2024/02/17 10:22:07;;;;;;;;;;;;;;;15.77;45.59;102022.00;5022261;28;1047;-54
2024/02/17 10:24:32;;;;;;;;;;;;;;;15.53;46.46;102036.53;5036075;28;1138;-52
2024/02/17 10:26:58;;;;;;;;;;;;;;;15.40;46.75;102032.09;5035840;28;1918;-49
2024/02/17 10:29:24;;;;;;;;;;;;;;;16.49;44.19;102037.38;5067724;28;1079;-50
2024/02/17 10:31:49;;;;;;;;;;;;;;;17.49;41.83;102028.84;5032243;28;1210;-52
2024/02/17 10:34:15;;;;;;;;;;;;;;;16.46;43.92;102030.47;5025524;28;1198;-49
2024/02/17 10:36:41;;;;;;;;;;;;;;;15.90;45.30;102030.88;5038078;28;1127;-49
2024/02/17 10:39:06;;;;;;;;;;;;;;;15.66;45.60;102026.41;5029768;28;1054;-50
2024/02/17 10:41:34;;;;;;;;;;;;;;;15.40;46.41;102025.75;5022274;28;1146;-55
2024/02/17 10:44:00;;;;;;;;;;;;;;;16.42;44.18;102010.91;5038732;28;1063;-51
2024/02/17 10:46:26;;;;;;;;;;;;;;;17.43;41.76;102017.78;5022640;28;1910;-53
2024/02/17 10:49:12;;;;;;;;;;;;;;;16.40;43.95;102014.97;5019700;28;1128;-55
2024/02/17 10:51:53;;;;;;;;;;;;;;;15.85;45.17;102019.78;5021656;28;1277;-56
2024/02/17 10:54:20;;;;;;;;;;;;;;;15.57;45.74;102025.91;5022638;28;1160;-55
2024/02/17 10:56:46;;;;;;;;;;;;;;;15.35;46.26;102022.91;5059758;28;934;-55
2024/02/17 10:59:11;;;;;;;;;;;;;;;16.61;43.68;102024.47;5036178;28;1085;-54
2024/02/17 11:01:37;;;;;;;;;;;;;;;17.54;41.47;102020.69;5065790;28;1178;-51
2024/02/17 11:04:03;;;;;;;;;;;;;;;16.52;43.68;102020.41;5028657;28;1119;-50
2024/02/17 11:06:28;;;;;;;;;;;;;;;16.00;44.89;102024.78;5034405;28;1914;-55
2024/02/17 11:08:54;;;;;;;;;;;;;;;15.68;45.67;102030.59;5024031;28;925;-56
2024/02/17 11:11:26;;;;;;;;;;;;;;;15.47;46.08;102031.97;5038034;28;1119;-56
2024/02/17 11:13:52;;;;;;;;;;;;;;;15.78;45.59;102032.75;5038684;28;1140;-56
2024/02/17 11:16:18;;;;;;;;;;;;;;;17.17;42.44;102023.91;5038449;28;1063;-55
2024/02/17 11:18:44;;;;;;;;;;;;;;;16.81;43.05;102035.00;5038555;28;1143;-56
2024/02/17 11:21:10;;;;;;;;;;;;;;;16.08;44.68;102032.66;5038320;28;892;-56
2024/02/17 11:23:40;;;;;;;;;;;;;;;15.74;45.63;102026.91;5025313;28;1067;-56
2024/02/17 11:26:06;;;;;;;;;;;;;;;15.53;46.19;102031.06;5036882;28;1910;-57
2024/02/17 11:28:33;;;;;;;;;;;;;;;15.36;46.58;102030.91;5038498;28;1102;-56
2024/02/17 11:30:59;;;;;;;;;;;;;;;16.95;42.91;102035.59;5069728;28;1261;-49
2024/02/17 11:33:28;;;;;;;;;;;;;;;17.02;42.76;102030.78;5037760;28;1119;-56
2024/02/17 11:35:54;;;;;;;;;;;;;;;16.11;44.77;102036.00;5037680;28;1114;-56
2024/02/17 11:38:26;;;;;;;;;;;;;;;15.80;45.37;102033.38;5038400;28;1114;-56
2024/02/17 11:40:52;;;;;;;;;;;;;;;15.55;46.00;102036.28;5032426;28;1135;-54
2024/02/17 11:43:18;;;;;;;;;;;;;;;15.50;46.42;102038.91;5030589;28;1092;-49
2024/02/17 11:45:44;;;;;;;;;;;;;;;16.96;42.82;102026.28;5028053;28;2017;-52
2024/02/17 11:48:09;;;;;;;;;;;;;;;17.12;42.40;102038.38;5034517;28;1246;-50
2024/02/17 11:50:40;;;;;;;;;;;;;;;16.22;44.34;102035.16;5037763;28;1108;-49
2024/02/17 11:53:06;;;;;;;;;;;;;;;15.78;45.36;102026.41;5037498;28;1229;-50
2024/02/17 11:55:31;;;;;;;;;;;;;;;15.57;46.16;102036.88;5021207;28;1202;-53
2024/02/17 11:57:57;;;;;;;;;;;;;;;15.33;46.57;102036.00;5036180;28;1109;-55
2024/02/17 12:00:23;;;;;;;;;;;;;;;15.90;45.49;102035.53;5024478;28;1123;-56
2024/02/17 12:02:49;;;;;;;;;;;;;;;17.24;42.24;102027.34;5037469;28;1063;-49
2024/02/17 12:05:15;;;;;;;;;;;;;;;16.83;42.97;102026.53;5020796;28;1981;-51
2024/02/17 12:07:41;;;;;;;;;;;;;;;16.11;44.83;102036.00;5027981;28;1187;-51
2024/02/17 12:10:11;;;;;;;;;;;;;;;15.68;45.72;102027.88;5037257;28;1015;-48
2024/02/17 12:12:39;;;;;;;;;;;;;;;15.49;46.43;102035.34;5034299;28;1064;-55
2024/02/17 12:15:22;;;;;;;;;;;;;;;15.39;46.41;102035.91;5031967;28;1131;-48
2024/02/17 12:17:48;;;;;;;;;;;;;;;17.09;42.83;102039.69;5024111;28;1011;-48
2024/02/17 12:20:14;;;;;;;;;;;;;;;16.99;42.80;102042.25;5031721;28;996;-53
2024/02/17 12:22:45;;;;;;;;;;;;;;;16.14;44.67;102033.59;5021700;28;1012;-56
2024/02/17 12:25:12;;;;;;;;;;;;;;;15.64;45.81;102034.88;5025585;28;1894;-49
2024/02/17 12:27:39;;;;;;;;;;;;;;;15.46;46.48;102043.19;5022645;28;1071;-51
2024/02/17 12:30:06;;;;;;;;;;;;;;;15.27;47.05;102047.91;5037268;28;853;-52
2024/02/17 12:32:32;;;;;;;;;;;;;;;16.82;43.41;102041.34;5026749;28;1088;-56
2024/02/17 12:35:09;;;;;;;;;;;;;;;17.27;41.97;102038.66;5028966;28;1123;-57
2024/02/17 12:37:35;;;;;;;;;;;;;;;16.18;44.62;102043.03;5033563;28;1044;-57
2024/02/17 12:40:06;;;;;;;;;;;;;;;15.80;45.54;102047.09;5037008;28;1206;-57
2024/02/17 12:42:31;;;;;;;;;;;;;;;15.52;46.31;102056.78;5019579;28;1078;-57
2024/02/17 12:44:57;;;;;;;;;;;;;;;15.31;47.00;102049.94;5049077;28;1154;-52